sensor_id;sensor_type;location;lat;lon;timestamp;pressure;altitude;pressure_sealevel;temperature;humidity
45441;BME280;31189;38.790;-77.084;2022-12-10T00:00:36;102288.13;;;7.35;42.84
45441;BME280;31189;38.790;-77.084;2022-12-10T00:03:04;102291.05;;;7.05;44.17
45441;BME280;31189;38.790;-77.084;2022-12-10T00:05:33;102296.79;;;7.29;44.42
45441;BME280;31189;38.790;-77.084;2022-12-10T00:08:02;102301.65;;;7.05;44.13
45441;BME280;31189;38.790;-77.084;2022-12-10T00:10:30;102308.25;;;7.42;42.80
45441;BME280;31189;38.790;-77.084;2022-12-10T00:12:58;102310.28;;;7.74;42.87
45441;BME280;31189;38.790;-77.084;2022-12-10T00:15:25;102315.37;;;7.92;42.63
45441;BME280;31189;38.790;-77.084;2022-12-10T00:17:53;102321.33;;;7.66;42.41
45441;BME280;31189;38.790;-77.084;2022-12-10T00:20:21;102325.16;;;7.94;42.13
45441;BME280;31189;38.790;-77.084;2022-12-10T00:22:48;102327.81;;;7.91;41.50
45441;BME280;31189;38.790;-77.084;2022-12-10T00:25:17;102326.10;;;7.78;41.63
45441;BME280;31189;38.790;-77.084;2022-12-10T00:27:45;102323.39;;;6.86;42.36
45441;BME280;31189;38.790;-77.084;2022-12-10T00:30:13;102324.41;;;7.90;41.46
45441;BME280;31189;38.790;-77.084;2022-12-10T00:32:41;102325.25;;;7.49;41.51
45441;BME280;31189;38.790;-77.084;2022-12-10T00:35:09;102325.82;;;7.57;41.33
45441;BME280;31189;38.790;-77.084;2022-12-10T00:37:37;102327.92;;;7.95;41.60
45441;BME280;31189;38.790;-77.084;2022-12-10T00:40:07;102324.61;;;7.22;41.83
45441;BME280;31189;38.790;-77.084;2022-12-10T00:42:35;102324.30;;;6.30;44.90
45441;BME280;31189;38.790;-77.084;2022-12-10T00:45:03;102326.30;;;5.37;46.79
45441;BME280;31189;38.790;-77.084;2022-12-10T00:47:31;102329.81;;;5.78;46.75
45441;BME280;31189;38.790;-77.084;2022-12-10T00:49:59;102333.20;;;5.94;47.03
45441;BME280;31189;38.790;-77.084;2022-12-10T00:52:27;102328.89;;;6.24;46.15
45441;BME280;31189;38.790;-77.084;2022-12-10T00:54:56;102331.07;;;5.94;46.77
45441;BME280;31189;38.790;-77.084;2022-12-10T00:57:24;102336.15;;;6.28;45.31
45441;BME280;31189;38.790;-77.084;2022-12-10T00:59:52;102339.84;;;6.19;44.86
45441;BME280;31189;38.790;-77.084;2022-12-10T01:02:21;102340.17;;;6.69;44.02
45441;BME280;31189;38.790;-77.084;2022-12-10T01:04:53;102341.50;;;7.03;43.34
45441;BME280;31189;38.790;-77.084;2022-12-10T01:07:21;102342.50;;;6.92;43.30
45441;BME280;31189;38.790;-77.084;2022-12-10T01:09:49;102343.97;;;6.82;43.65
45441;BME280;31189;38.790;-77.084;2022-12-10T01:12:17;102344.87;;;6.69;44.19
45441;BME280;31189;38.790;-77.084;2022-12-10T01:14:45;102338.57;;;6.48;43.77
45441;BME280;31189;38.790;-77.084;2022-12-10T01:17:12;102331.55;;;6.68;43.62
45441;BME280;31189;38.790;-77.084;2022-12-10T01:19:41;102329.01;;;7.27;42.60
45441;BME280;31189;38.790;-77.084;2022-12-10T01:22:09;102327.94;;;6.56;43.38
45441;BME280;31189;38.790;-77.084;2022-12-10T01:24:37;102328.74;;;6.66;43.55
45441;BME280;31189;38.790;-77.084;2022-12-10T01:27:05;102328.53;;;7.62;42.01
45441;BME280;31189;38.790;-77.084;2022-12-10T01:29:33;102331.24;;;6.95;42.91
45441;BME280;31189;38.790;-77.084;2022-12-10T01:32:01;102335.69;;;6.02;44.24
45441;BME280;31189;38.790;-77.084;2022-12-10T01:34:29;102335.48;;;6.47;44.06
45441;BME280;31189;38.790;-77.084;2022-12-10T01:36:57;102340.10;;;5.98;45.40
45441;BME280;31189;38.790;-77.084;2022-12-10T01:39:26;102342.54;;;5.55;46.23
45441;BME280;31189;38.790;-77.084;2022-12-10T01:41:55;102348.10;;;4.84;48.27
45441;BME280;31189;38.790;-77.084;2022-12-10T01:45:04;102353.40;;;5.16;50.62
45441;BME280;31189;38.790;-77.084;2022-12-10T01:47:33;102360.31;;;4.53;50.94
45441;BME280;31189;38.790;-77.084;2022-12-10T01:50:01;102360.78;;;4.82;49.27
45441;BME280;31189;38.790;-77.084;2022-12-10T01:52:29;102360.85;;;5.21;48.43
45441;BME280;31189;38.790;-77.084;2022-12-10T01:54:57;102363.62;;;5.16;47.36
45441;BME280;31189;38.790;-77.084;2022-12-10T01:57:27;102367.23;;;5.41;46.30
45441;BME280;31189;38.790;-77.084;2022-12-10T01:59:58;102374.29;;;6.02;45.80
45441;BME280;31189;38.790;-77.084;2022-12-10T02:02:38;102373.95;;;6.21;45.37
45441;BME280;31189;38.790;-77.084;2022-12-10T02:05:19;102370.62;;;5.62;45.55
45441;BME280;31189;38.790;-77.084;2022-12-10T02:07:57;102375.95;;;5.70;46.67
45441;BME280;31189;38.790;-77.084;2022-12-10T02:10:36;102373.52;;;6.72;43.94
45441;BME280;31189;38.790;-77.084;2022-12-10T02:13:12;102365.61;;;6.04;44.14
45441;BME280;31189;38.790;-77.084;2022-12-10T02:15:46;102361.20;;;6.24;44.40
45441;BME280;31189;38.790;-77.084;2022-12-10T02:18:20;102366.96;;;6.26;44.27
45441;BME280;31189;38.790;-77.084;2022-12-10T02:20:51;102363.82;;;6.79;43.25
45441;BME280;31189;38.790;-77.084;2022-12-10T02:23:25;102358.89;;;6.72;43.72
45441;BME280;31189;38.790;-77.084;2022-12-10T02:25:59;102360.41;;;6.55;43.20
45441;BME280;31189;38.790;-77.084;2022-12-10T02:28:38;102363.02;;;5.89;43.94
45441;BME280;31189;38.790;-77.084;2022-12-10T02:31:09;102365.79;;;5.08;46.38
45441;BME280;31189;38.790;-77.084;2022-12-10T02:33:43;102371.76;;;4.44;48.45
45441;BME280;31189;38.790;-77.084;2022-12-10T02:36:14;102371.73;;;4.33;49.57
45441;BME280;31189;38.790;-77.084;2022-12-10T02:38:44;102373.80;;;4.24;50.94
45441;BME280;31189;38.790;-77.084;2022-12-10T02:41:15;102377.15;;;5.09;49.31
45441;BME280;31189;38.790;-77.084;2022-12-10T02:43:47;102374.92;;;4.93;48.14
45441;BME280;31189;38.790;-77.084;2022-12-10T02:46:17;102378.90;;;5.36;47.92
45441;BME280;31189;38.790;-77.084;2022-12-10T02:48:45;102375.95;;;4.46;48.44
45441;BME280;31189;38.790;-77.084;2022-12-10T02:51:14;102369.21;;;5.82;46.36
45441;BME280;31189;38.790;-77.084;2022-12-10T02:53:42;102366.84;;;5.82;46.31
45441;BME280;31189;38.790;-77.084;2022-12-10T02:56:17;102375.50;;;5.44;46.03
45441;BME280;31189;38.790;-77.084;2022-12-10T02:58:55;102382.04;;;4.16;47.82
45441;BME280;31189;38.790;-77.084;2022-12-10T03:01:36;102379.24;;;4.92;47.22
45441;BME280;31189;38.790;-77.084;2022-12-10T03:04:11;102378.74;;;4.06;49.85
45441;BME280;31189;38.790;-77.084;2022-12-10T03:06:45;102377.83;;;5.05;48.80
45441;BME280;31189;38.790;-77.084;2022-12-10T03:09:19;102377.91;;;5.21;48.19
45441;BME280;31189;38.790;-77.084;2022-12-10T03:11:51;102373.33;;;5.51;47.17
45441;BME280;31189;38.790;-77.084;2022-12-10T03:14:27;102370.95;;;6.02;46.09
45441;BME280;31189;38.790;-77.084;2022-12-10T03:16:57;102361.38;;;5.67;45.86
45441;BME280;31189;38.790;-77.084;2022-12-10T03:19:31;102353.29;;;5.49;46.53
45441;BME280;31189;38.790;-77.084;2022-12-10T03:22:02;102357.79;;;5.50;45.60
45441;BME280;31189;38.790;-77.084;2022-12-10T03:24:31;102361.36;;;4.93;47.00
45441;BME280;31189;38.790;-77.084;2022-12-10T03:27:02;102363.88;;;4.28;47.97
45441;BME280;31189;38.790;-77.084;2022-12-10T03:29:35;102359.32;;;4.68;47.90
45441;BME280;31189;38.790;-77.084;2022-12-10T03:32:04;102365.24;;;4.93;47.68
45441;BME280;31189;38.790;-77.084;2022-12-10T03:34:34;102369.95;;;4.99;47.29
45441;BME280;31189;38.790;-77.084;2022-12-10T03:37:03;102377.00;;;4.32;50.06
45441;BME280;31189;38.790;-77.084;2022-12-10T03:39:32;102370.79;;;4.36;50.63
45441;BME280;31189;38.790;-77.084;2022-12-10T03:42:01;102369.72;;;4.69;49.31
45441;BME280;31189;38.790;-77.084;2022-12-10T03:44:30;102362.97;;;4.85;49.15
45441;BME280;31189;38.790;-77.084;2022-12-10T03:46:58;102366.22;;;3.96;49.60
45441;BME280;31189;38.790;-77.084;2022-12-10T03:49:26;102361.20;;;4.49;48.95
45441;BME280;31189;38.790;-77.084;2022-12-10T03:51:54;102358.98;;;5.32;47.65
45441;BME280;31189;38.790;-77.084;2022-12-10T03:54:22;102366.48;;;4.93;47.12
45441;BME280;31189;38.790;-77.084;2022-12-10T03:56:51;102371.06;;;4.13;48.57
45441;BME280;31189;38.790;-77.084;2022-12-10T03:59:20;102366.19;;;3.49;50.86
45441;BME280;31189;38.790;-77.084;2022-12-10T04:01:47;102364.67;;;3.98;50.38
45441;BME280;31189;38.790;-77.084;2022-12-10T04:04:15;102357.67;;;3.86;50.65
45441;BME280;31189;38.790;-77.084;2022-12-10T04:06:44;102349.63;;;4.00;50.04
45441;BME280;31189;38.790;-77.084;2022-12-10T04:09:13;102348.71;;;4.54;49.77
45441;BME280;31189;38.790;-77.084;2022-12-10T04:11:43;102357.38;;;3.71;50.82
45441;BME280;31189;38.790;-77.084;2022-12-10T04:14:13;102349.52;;;4.07;49.20
45441;BME280;31189;38.790;-77.084;2022-12-10T04:16:41;102343.45;;;3.30;51.42
45441;BME280;31189;38.790;-77.084;2022-12-10T04:19:11;102335.05;;;3.39;50.88
45441;BME280;31189;38.790;-77.084;2022-12-10T04:21:40;102340.82;;;3.27;52.34
45441;BME280;31189;38.790;-77.084;2022-12-10T04:24:09;102341.75;;;3.42;51.80
45441;BME280;31189;38.790;-77.084;2022-12-10T04:26:37;102334.86;;;3.61;51.56
45441;BME280;31189;38.790;-77.084;2022-12-10T04:29:05;102330.19;;;3.85;51.96
45441;BME280;31189;38.790;-77.084;2022-12-10T04:31:39;102315.95;;;3.60;53.05
45441;BME280;31189;38.790;-77.084;2022-12-10T04:34:07;102316.18;;;3.77;51.44
45441;BME280;31189;38.790;-77.084;2022-12-10T04:36:35;102308.54;;;4.23;50.46
45441;BME280;31189;38.790;-77.084;2022-12-10T04:39:03;102309.89;;;4.65;49.48
45441;BME280;31189;38.790;-77.084;2022-12-10T04:41:31;102308.79;;;4.34;49.86
45441;BME280;31189;38.790;-77.084;2022-12-10T04:43:59;102313.11;;;4.81;49.06
45441;BME280;31189;38.790;-77.084;2022-12-10T04:46:28;102315.73;;;4.37;49.60
45441;BME280;31189;38.790;-77.084;2022-12-10T04:48:56;102311.70;;;4.19;50.65
45441;BME280;31189;38.790;-77.084;2022-12-10T04:51:24;102310.71;;;2.89;53.88
45441;BME280;31189;38.790;-77.084;2022-12-10T04:53:52;102307.70;;;2.62;54.86
45441;BME280;31189;38.790;-77.084;2022-12-10T04:56:20;102313.07;;;2.75;55.11
45441;BME280;31189;38.790;-77.084;2022-12-10T04:58:47;102316.66;;;3.41;53.68
45441;BME280;31189;38.790;-77.084;2022-12-10T05:01:16;102320.40;;;3.81;52.97
45441;BME280;31189;38.790;-77.084;2022-12-10T05:03:44;102317.52;;;3.80;51.73
45441;BME280;31189;38.790;-77.084;2022-12-10T05:06:14;102315.22;;;4.78;49.48
45441;BME280;31189;38.790;-77.084;2022-12-10T05:08:42;102323.56;;;5.09;49.26
45441;BME280;31189;38.790;-77.084;2022-12-10T05:11:12;102331.09;;;3.61;51.30
45441;BME280;31189;38.790;-77.084;2022-12-10T05:13:41;102334.02;;;4.46;48.74
45441;BME280;31189;38.790;-77.084;2022-12-10T05:16:12;102326.95;;;4.41;49.06
45441;BME280;31189;38.790;-77.084;2022-12-10T05:18:40;102330.61;;;4.60;48.74
45441;BME280;31189;38.790;-77.084;2022-12-10T05:21:11;102327.63;;;3.55;51.29
45441;BME280;31189;38.790;-77.084;2022-12-10T05:23:43;102327.24;;;3.95;51.99
45441;BME280;31189;38.790;-77.084;2022-12-10T05:26:14;102326.38;;;3.55;51.81
45441;BME280;31189;38.790;-77.084;2022-12-10T05:28:45;102326.31;;;3.48;52.56
45441;BME280;31189;38.790;-77.084;2022-12-10T05:31:15;102328.63;;;4.20;50.79
45441;BME280;31189;38.790;-77.084;2022-12-10T05:33:43;102332.11;;;4.58;49.66
45441;BME280;31189;38.790;-77.084;2022-12-10T05:36:14;102329.53;;;4.67;48.28
45441;BME280;31189;38.790;-77.084;2022-12-10T05:38:43;102334.82;;;4.60;47.84
45441;BME280;31189;38.790;-77.084;2022-12-10T05:41:13;102339.46;;;3.55;49.80
45441;BME280;31189;38.790;-77.084;2022-12-10T05:43:43;102337.94;;;3.96;51.26
45441;BME280;31189;38.790;-77.084;2022-12-10T05:46:13;102339.94;;;4.00;51.44
45441;BME280;31189;38.790;-77.084;2022-12-10T05:48:41;102341.36;;;4.41;50.65
45441;BME280;31189;38.790;-77.084;2022-12-10T05:51:11;102345.90;;;4.65;49.38
45441;BME280;31189;38.790;-77.084;2022-12-10T05:53:39;102350.10;;;3.86;50.42
45441;BME280;31189;38.790;-77.084;2022-12-10T05:56:08;102352.49;;;3.98;50.37
45441;BME280;31189;38.790;-77.084;2022-12-10T05:58:38;102357.39;;;4.56;49.69
45441;BME280;31189;38.790;-77.084;2022-12-10T06:01:08;102356.81;;;4.61;49.35
45441;BME280;31189;38.790;-77.084;2022-12-10T06:03:37;102361.49;;;4.03;50.97
45441;BME280;31189;38.790;-77.084;2022-12-10T06:06:05;102368.06;;;4.50;50.04
45441;BME280;31189;38.790;-77.084;2022-12-10T06:08:34;102372.15;;;4.40;49.89
45441;BME280;31189;38.790;-77.084;2022-12-10T06:11:02;102374.95;;;4.30;49.67
45441;BME280;31189;38.790;-77.084;2022-12-10T06:13:30;102371.23;;;5.17;49.28
45441;BME280;31189;38.790;-77.084;2022-12-10T06:15:57;102371.78;;;3.87;50.84
45441;BME280;31189;38.790;-77.084;2022-12-10T06:18:25;102378.89;;;4.38;50.07
45441;BME280;31189;38.790;-77.084;2022-12-10T06:20:53;102380.05;;;4.60;48.61
45441;BME280;31189;38.790;-77.084;2022-12-10T06:23:21;102383.31;;;3.73;50.50
45441;BME280;31189;38.790;-77.084;2022-12-10T06:25:48;102383.33;;;3.84;50.42
45441;BME280;31189;38.790;-77.084;2022-12-10T06:28:16;102381.45;;;3.25;51.77
45441;BME280;31189;38.790;-77.084;2022-12-10T06:30:44;102378.97;;;3.04;51.53
45441;BME280;31189;38.790;-77.084;2022-12-10T06:33:12;102376.52;;;3.66;51.67
45441;BME280;31189;38.790;-77.084;2022-12-10T06:35:40;102377.00;;;3.75;51.82
45441;BME280;31189;38.790;-77.084;2022-12-10T06:38:08;102379.27;;;4.13;51.35
45441;BME280;31189;38.790;-77.084;2022-12-10T06:40:39;102385.09;;;4.46;50.47
45441;BME280;31189;38.790;-77.084;2022-12-10T06:43:07;102395.65;;;3.18;52.80
45441;BME280;31189;38.790;-77.084;2022-12-10T06:45:38;102404.20;;;4.42;49.77
45441;BME280;31189;38.790;-77.084;2022-12-10T06:48:07;102399.39;;;3.86;49.82
45441;BME280;31189;38.790;-77.084;2022-12-10T06:50:35;102393.79;;;3.92;50.76
45441;BME280;31189;38.790;-77.084;2022-12-10T06:53:03;102394.21;;;3.68;51.04
45441;BME280;31189;38.790;-77.084;2022-12-10T06:55:31;102400.70;;;4.24;50.58
45441;BME280;31189;38.790;-77.084;2022-12-10T06:57:59;102397.72;;;3.99;50.50
45441;BME280;31189;38.790;-77.084;2022-12-10T07:00:26;102394.90;;;4.40;49.85
45441;BME280;31189;38.790;-77.084;2022-12-10T07:02:55;102399.10;;;3.15;52.83
45441;BME280;31189;38.790;-77.084;2022-12-10T07:05:23;102406.97;;;3.92;51.21
45441;BME280;31189;38.790;-77.084;2022-12-10T07:07:50;102413.43;;;4.36;49.53
45441;BME280;31189;38.790;-77.084;2022-12-10T07:10:18;102406.26;;;4.51;48.35
45441;BME280;31189;38.790;-77.084;2022-12-10T07:12:46;102408.99;;;4.38;48.59
45441;BME280;31189;38.790;-77.084;2022-12-10T07:15:14;102396.03;;;4.78;48.08
45441;BME280;31189;38.790;-77.084;2022-12-10T07:17:42;102398.65;;;4.59;48.53
45441;BME280;31189;38.790;-77.084;2022-12-10T07:20:11;102399.20;;;3.75;49.68
45441;BME280;31189;38.790;-77.084;2022-12-10T07:22:38;102400.76;;;3.87;48.94
45441;BME280;31189;38.790;-77.084;2022-12-10T07:25:07;102400.77;;;3.41;50.84
45441;BME280;31189;38.790;-77.084;2022-12-10T07:27:35;102398.94;;;4.34;50.20
45441;BME280;31189;38.790;-77.084;2022-12-10T07:30:03;102397.45;;;3.58;51.17
45441;BME280;31189;38.790;-77.084;2022-12-10T07:32:31;102399.53;;;3.56;51.57
45441;BME280;31189;38.790;-77.084;2022-12-10T07:34:58;102408.01;;;3.25;52.15
45441;BME280;31189;38.790;-77.084;2022-12-10T07:37:26;102409.80;;;3.34;50.60
45441;BME280;31189;38.790;-77.084;2022-12-10T07:39:53;102406.35;;;3.70;49.83
45441;BME280;31189;38.790;-77.084;2022-12-10T07:42:21;102400.12;;;4.11;50.43
45441;BME280;31189;38.790;-77.084;2022-12-10T07:44:49;102398.64;;;3.43;51.29
45441;BME280;31189;38.790;-77.084;2022-12-10T07:47:17;102401.58;;;4.06;51.74
45441;BME280;31189;38.790;-77.084;2022-12-10T07:49:45;102405.67;;;3.48;51.43
45441;BME280;31189;38.790;-77.084;2022-12-10T07:52:13;102401.55;;;3.69;53.00
45441;BME280;31189;38.790;-77.084;2022-12-10T07:54:41;102406.47;;;1.73;54.67
45441;BME280;31189;38.790;-77.084;2022-12-10T07:57:09;102408.04;;;0.74;59.64
45441;BME280;31189;38.790;-77.084;2022-12-10T07:59:37;102404.23;;;3.51;51.92
45441;BME280;31189;38.790;-77.084;2022-12-10T08:02:05;102405.34;;;3.66;50.92
45441;BME280;31189;38.790;-77.084;2022-12-10T08:04:33;102404.99;;;3.69;51.11
45441;BME280;31189;38.790;-77.084;2022-12-10T08:07:01;102401.65;;;3.33;52.30
45441;BME280;31189;38.790;-77.084;2022-12-10T08:09:29;102403.02;;;2.74;53.94
45441;BME280;31189;38.790;-77.084;2022-12-10T08:11:56;102403.46;;;3.17;53.10
45441;BME280;31189;38.790;-77.084;2022-12-10T08:14:24;102410.56;;;3.53;52.72
45441;BME280;31189;38.790;-77.084;2022-12-10T08:16:52;102413.82;;;2.71;54.25
45441;BME280;31189;38.790;-77.084;2022-12-10T08:19:19;102414.88;;;3.44;52.68
45441;BME280;31189;38.790;-77.084;2022-12-10T08:21:47;102412.49;;;3.12;53.00
45441;BME280;31189;38.790;-77.084;2022-12-10T08:24:15;102411.50;;;3.38;53.29
45441;BME280;31189;38.790;-77.084;2022-12-10T08:26:43;102407.39;;;2.98;53.81
45441;BME280;31189;38.790;-77.084;2022-12-10T08:29:11;102409.32;;;2.48;54.93
45441;BME280;31189;38.790;-77.084;2022-12-10T08:31:39;102408.72;;;2.93;53.77
45441;BME280;31189;38.790;-77.084;2022-12-10T08:34:12;102399.91;;;2.74;55.27
45441;BME280;31189;38.790;-77.084;2022-12-10T08:36:41;102402.99;;;2.62;55.70
45441;BME280;31189;38.790;-77.084;2022-12-10T08:39:09;102405.56;;;2.68;55.31
45441;BME280;31189;38.790;-77.084;2022-12-10T08:41:38;102401.18;;;3.22;54.34
45441;BME280;31189;38.790;-77.084;2022-12-10T08:44:05;102399.07;;;3.13;53.83
45441;BME280;31189;38.790;-77.084;2022-12-10T08:46:33;102397.39;;;3.59;53.15
45441;BME280;31189;38.790;-77.084;2022-12-10T08:49:01;102401.68;;;3.19;53.81
45441;BME280;31189;38.790;-77.084;2022-12-10T08:51:29;102400.00;;;3.75;52.55
45441;BME280;31189;38.790;-77.084;2022-12-10T08:53:57;102396.23;;;3.63;52.30
45441;BME280;31189;38.790;-77.084;2022-12-10T08:56:25;102394.41;;;2.43;55.52
45441;BME280;31189;38.790;-77.084;2022-12-10T08:58:53;102404.84;;;2.31;55.69
45441;BME280;31189;38.790;-77.084;2022-12-10T09:01:20;102408.61;;;2.31;55.02
45441;BME280;31189;38.790;-77.084;2022-12-10T09:03:48;102404.11;;;2.16;55.12
45441;BME280;31189;38.790;-77.084;2022-12-10T09:06:19;102403.72;;;2.66;55.46
45441;BME280;31189;38.790;-77.084;2022-12-10T09:08:47;102411.08;;;2.38;54.72
45441;BME280;31189;38.790;-77.084;2022-12-10T09:11:17;102404.56;;;2.66;54.88
45441;BME280;31189;38.790;-77.084;2022-12-10T09:13:45;102416.34;;;2.33;54.22
45441;BME280;31189;38.790;-77.084;2022-12-10T09:16:13;102418.95;;;3.49;53.15
45441;BME280;31189;38.790;-77.084;2022-12-10T09:18:41;102413.17;;;3.28;53.10
45441;BME280;31189;38.790;-77.084;2022-12-10T09:21:11;102410.72;;;3.69;51.96
45441;BME280;31189;38.790;-77.084;2022-12-10T09:23:41;102406.46;;;4.04;51.44
45441;BME280;31189;38.790;-77.084;2022-12-10T09:26:11;102396.64;;;3.53;52.54
45441;BME280;31189;38.790;-77.084;2022-12-10T09:28:40;102399.00;;;2.54;54.31
45441;BME280;31189;38.790;-77.084;2022-12-10T09:31:09;102401.25;;;2.35;54.95
45441;BME280;31189;38.790;-77.084;2022-12-10T09:33:39;102395.56;;;2.99;52.77
45441;BME280;31189;38.790;-77.084;2022-12-10T09:36:08;102396.81;;;3.34;52.09
45441;BME280;31189;38.790;-77.084;2022-12-10T09:38:38;102397.29;;;3.38;51.85
45441;BME280;31189;38.790;-77.084;2022-12-10T09:41:20;102395.20;;;3.28;52.46
45441;BME280;31189;38.790;-77.084;2022-12-10T09:43:57;102392.32;;;3.01;52.47
45441;BME280;31189;38.790;-77.084;2022-12-10T09:46:40;102384.04;;;2.27;54.86
45441;BME280;31189;38.790;-77.084;2022-12-10T09:49:17;102381.49;;;3.05;54.72
45441;BME280;31189;38.790;-77.084;2022-12-10T09:51:48;102387.07;;;3.90;52.91
45441;BME280;31189;38.790;-77.084;2022-12-10T09:54:22;102391.64;;;2.81;55.10
45441;BME280;31189;38.790;-77.084;2022-12-10T09:56:53;102394.62;;;3.73;53.07
45441;BME280;31189;38.790;-77.084;2022-12-10T09:59:27;102394.93;;;3.80;53.25
45441;BME280;31189;38.790;-77.084;2022-12-10T10:02:03;102404.39;;;3.75;52.55
45441;BME280;31189;38.790;-77.084;2022-12-10T10:04:39;102416.35;;;1.93;57.03
45441;BME280;31189;38.790;-77.084;2022-12-10T10:07:07;102422.42;;;2.67;54.80
45441;BME280;31189;38.790;-77.084;2022-12-10T10:09:39;102418.62;;;3.68;52.60
45441;BME280;31189;38.790;-77.084;2022-12-10T10:12:13;102420.52;;;3.80;52.00
45441;BME280;31189;38.790;-77.084;2022-12-10T10:14:43;102418.90;;;4.33;50.75
45441;BME280;31189;38.790;-77.084;2022-12-10T10:17:16;102428.62;;;4.53;49.63
45441;BME280;31189;38.790;-77.084;2022-12-10T10:19:46;102418.41;;;3.51;49.95
45441;BME280;31189;38.790;-77.084;2022-12-10T10:22:14;102426.37;;;4.60;50.07
45441;BME280;31189;38.790;-77.084;2022-12-10T10:24:45;102431.05;;;4.48;49.45
45441;BME280;31189;38.790;-77.084;2022-12-10T10:27:15;102428.16;;;5.20;48.71
45441;BME280;31189;38.790;-77.084;2022-12-10T10:29:45;102426.20;;;5.45;48.01
45441;BME280;31189;38.790;-77.084;2022-12-10T10:32:17;102435.40;;;4.68;48.09
45441;BME280;31189;38.790;-77.084;2022-12-10T10:34:46;102442.01;;;3.14;50.44
45441;BME280;31189;38.790;-77.084;2022-12-10T10:37:22;102443.00;;;4.77;48.07
45441;BME280;31189;38.790;-77.084;2022-12-10T10:39:51;102452.13;;;4.73;47.46
45441;BME280;31189;38.790;-77.084;2022-12-10T10:42:35;102459.02;;;5.01;47.14
45441;BME280;31189;38.790;-77.084;2022-12-10T10:45:06;102448.88;;;4.57;47.67
45441;BME280;31189;38.790;-77.084;2022-12-10T10:48:05;102444.48;;;4.25;48.65
45441;BME280;31189;38.790;-77.084;2022-12-10T10:50:38;102458.31;;;3.41;49.59
45441;BME280;31189;38.790;-77.084;2022-12-10T10:53:39;102459.98;;;4.29;48.85
45441;BME280;31189;38.790;-77.084;2022-12-10T10:56:09;102464.09;;;4.35;48.95
45441;BME280;31189;38.790;-77.084;2022-12-10T10:58:53;102466.19;;;4.69;48.41
45441;BME280;31189;38.790;-77.084;2022-12-10T11:01:25;102467.62;;;4.38;48.56
45441;BME280;31189;38.790;-77.084;2022-12-10T11:03:57;102469.32;;;4.03;49.06
45441;BME280;31189;38.790;-77.084;2022-12-10T11:06:26;102467.29;;;4.11;49.19
45441;BME280;31189;38.790;-77.084;2022-12-10T11:08:57;102465.41;;;4.38;48.82
45441;BME280;31189;38.790;-77.084;2022-12-10T11:11:33;102464.40;;;3.96;49.35
45441;BME280;31189;38.790;-77.084;2022-12-10T11:14:24;102463.80;;;3.51;50.85
45441;BME280;31189;38.790;-77.084;2022-12-10T11:17:01;102468.34;;;2.71;51.09
45441;BME280;31189;38.790;-77.084;2022-12-10T11:19:29;102471.90;;;3.57;50.42
45441;BME280;31189;38.790;-77.084;2022-12-10T11:22:16;102472.72;;;4.02;49.55
45441;BME280;31189;38.790;-77.084;2022-12-10T11:24:46;102477.27;;;3.74;49.79
45441;BME280;31189;38.790;-77.084;2022-12-10T11:27:21;102482.04;;;3.78;50.08
45441;BME280;31189;38.790;-77.084;2022-12-10T11:30:00;102486.12;;;3.40;50.23
45441;BME280;31189;38.790;-77.084;2022-12-10T11:32:40;102490.38;;;3.48;50.18
45441;BME280;31189;38.790;-77.084;2022-12-10T11:35:15;102494.00;;;3.38;51.19
45441;BME280;31189;38.790;-77.084;2022-12-10T11:37:53;102496.32;;;2.36;53.43
45441;BME280;31189;38.790;-77.084;2022-12-10T11:40:33;102496.82;;;3.02;52.64
45441;BME280;31189;38.790;-77.084;2022-12-10T11:43:48;102497.14;;;4.11;51.75
45441;BME280;31189;38.790;-77.084;2022-12-10T11:46:29;102505.65;;;3.00;52.01
45441;BME280;31189;38.790;-77.084;2022-12-10T11:49:12;102505.08;;;3.27;50.40
45441;BME280;31189;38.790;-77.084;2022-12-10T11:51:50;102504.51;;;2.60;51.88
45441;BME280;31189;38.790;-77.084;2022-12-10T11:55:10;102492.39;;;3.80;50.51
45441;BME280;31189;38.790;-77.084;2022-12-10T11:57:46;102500.08;;;3.08;50.80
45441;BME280;31189;38.790;-77.084;2022-12-10T12:00:20;102500.34;;;3.39;49.15
45441;BME280;31189;38.790;-77.084;2022-12-10T12:04:52;102505.97;;;3.82;49.46
45441;BME280;31189;38.790;-77.084;2022-12-10T12:07:33;102509.53;;;3.01;50.44
45441;BME280;31189;38.790;-77.084;2022-12-10T12:10:23;102508.05;;;3.14;48.62
45441;BME280;31189;38.790;-77.084;2022-12-10T12:12:58;102509.86;;;3.48;48.26
45441;BME280;31189;38.790;-77.084;2022-12-10T12:15:31;102505.87;;;4.14;46.70
45441;BME280;31189;38.790;-77.084;2022-12-10T12:18:03;102509.72;;;4.00;46.22
45441;BME280;31189;38.790;-77.084;2022-12-10T12:20:36;102508.85;;;3.60;46.28
45441;BME280;31189;38.790;-77.084;2022-12-10T12:23:15;102515.42;;;4.52;45.63
45441;BME280;31189;38.790;-77.084;2022-12-10T12:25:48;102516.83;;;3.73;46.48
45441;BME280;31189;38.790;-77.084;2022-12-10T12:28:21;102522.70;;;4.08;45.43
45441;BME280;31189;38.790;-77.084;2022-12-10T12:30:59;102522.91;;;4.24;45.95
45441;BME280;31189;38.790;-77.084;2022-12-10T12:33:34;102523.93;;;4.64;44.63
45441;BME280;31189;38.790;-77.084;2022-12-10T12:36:08;102522.89;;;4.72;43.51
45441;BME280;31189;38.790;-77.084;2022-12-10T12:38:42;102526.20;;;5.21;43.46
45441;BME280;31189;38.790;-77.084;2022-12-10T12:41:15;102528.64;;;4.58;44.30
45441;BME280;31189;38.790;-77.084;2022-12-10T12:43:50;102532.37;;;4.71;44.45
45441;BME280;31189;38.790;-77.084;2022-12-10T12:46:25;102531.83;;;4.73;43.58
45441;BME280;31189;38.790;-77.084;2022-12-10T12:48:58;102531.12;;;5.32;42.70
45441;BME280;31189;38.790;-77.084;2022-12-10T12:51:32;102526.66;;;5.00;41.79
45441;BME280;31189;38.790;-77.084;2022-12-10T12:54:00;102525.53;;;5.47;42.35
45441;BME280;31189;38.790;-77.084;2022-12-10T12:56:39;102533.86;;;5.77;40.55
45441;BME280;31189;38.790;-77.084;2022-12-10T12:59:21;102539.60;;;4.31;42.47
45441;BME280;31189;38.790;-77.084;2022-12-10T13:01:57;102544.80;;;4.82;44.32